createdAt,value
2022-10-11T00:01:34.944Z,102568.56
2022-10-11T00:04:01.906Z,102548.81
2022-10-11T00:06:28.677Z,102542.69
2022-10-11T00:08:57.025Z,102550.00
2022-10-11T00:11:23.899Z,102548.88
2022-10-11T00:13:50.800Z,102553.91
2022-10-11T00:16:17.992Z,102563.66
2022-10-11T00:18:44.941Z,102574.53
2022-10-11T00:21:14.959Z,102578.47
2022-10-11T00:23:43.347Z,102575.19
2022-10-11T00:26:12.285Z,102579.41
2022-10-11T00:28:40.428Z,102572.84
2022-10-11T00:31:08.976Z,102576.50
2022-10-11T00:33:36.196Z,102576.75
2022-10-11T00:36:04.160Z,102566.38
2022-10-11T00:38:32.105Z,102582.06
2022-10-11T00:40:59.440Z,102575.59
2022-10-11T00:43:30.849Z,102581.06
2022-10-11T00:46:28.133Z,102585.91
2022-10-11T00:49:00.615Z,102578.66
2022-10-11T00:51:44.504Z,102584.63
2022-10-11T00:54:15.228Z,102577.34
2022-10-11T00:56:44.003Z,102574.44
2022-10-11T00:59:16.507Z,102582.88
2022-10-11T01:01:43.967Z,102588.56
2022-10-11T01:04:10.964Z,102579.81
2022-10-11T01:06:37.838Z,102587.56
2022-10-11T01:09:04.764Z,102586.69
2022-10-11T01:11:32.767Z,102587.00
2022-10-11T01:14:16.226Z,102588.66
2022-10-11T01:16:51.987Z,102600.47
2022-10-11T01:19:35.836Z,102586.91
2022-10-11T01:22:13.489Z,102585.81
2022-10-11T01:25:00.564Z,102590.16
2022-10-11T01:27:42.210Z,102598.28
2022-10-11T01:30:22.339Z,102592.97
2022-10-11T01:32:55.380Z,102596.56
2022-10-11T01:35:28.870Z,102596.59
2022-10-11T01:38:01.703Z,102599.59
2022-10-11T01:40:33.826Z,102600.56
2022-10-11T01:43:02.091Z,102601.34
2022-10-11T01:45:32.716Z,102600.38
2022-10-11T01:48:05.829Z,102604.09
2022-10-11T01:50:42.514Z,102605.84
2022-10-11T01:53:39.132Z,102604.03
2022-10-11T01:56:19.989Z,102593.34
2022-10-11T01:58:57.587Z,102597.41
2022-10-11T02:01:33.940Z,102601.88
2022-10-11T02:04:06.651Z,102602.03
2022-10-11T02:06:43.866Z,102609.13
2022-10-11T02:09:18.012Z,102605.78
2022-10-11T02:11:44.948Z,102600.53
2022-10-11T02:14:15.926Z,102605.81
2022-10-11T02:16:48.552Z,102603.09
2022-10-11T02:19:19.350Z,102604.78
2022-10-11T02:21:50.651Z,102605.25
2022-10-11T02:24:22.412Z,102594.69
2022-10-11T02:26:54.622Z,102603.56
2022-10-11T02:29:24.474Z,102608.97
2022-10-11T02:31:54.474Z,102613.44
2022-10-11T02:34:25.102Z,102607.31
2022-10-11T02:36:59.872Z,102601.38
2022-10-11T02:39:31.984Z,102605.69
2022-10-11T02:42:03.574Z,102613.41
2022-10-11T02:44:35.318Z,102607.94
2022-10-11T02:47:04.513Z,102603.31
2022-10-11T02:49:32.031Z,102608.59
2022-10-11T02:51:59.442Z,102612.91
2022-10-11T02:54:27.184Z,102613.81
2022-10-11T02:56:54.010Z,102605.81
2022-10-11T02:59:20.956Z,102608.28
2022-10-11T03:01:47.836Z,102609.53
2022-10-11T03:04:16.214Z,102615.00
2022-10-11T03:06:43.054Z,102619.56
2022-10-11T03:09:09.921Z,102616.09
2022-10-11T03:11:36.744Z,102608.94
2022-10-11T03:14:03.512Z,102618.00
2022-10-11T03:16:30.446Z,102621.56
2022-10-11T03:18:57.196Z,102615.28
2022-10-11T03:21:25.716Z,102630.31
2022-10-11T03:23:52.538Z,102621.63
2022-10-11T03:26:19.413Z,102624.28
2022-10-11T03:28:46.578Z,102627.00
2022-10-11T03:31:13.596Z,102621.75
2022-10-11T03:33:40.394Z,102626.94
2022-10-11T03:36:09.167Z,102630.50
2022-10-11T03:38:37.617Z,102626.03
2022-10-11T03:41:04.555Z,102624.50
2022-10-11T03:43:31.904Z,102634.91
2022-10-11T03:45:58.935Z,102623.56
2022-10-11T03:48:25.788Z,102630.66
2022-10-11T03:50:53.026Z,102635.00
2022-10-11T03:53:19.800Z,102634.09
2022-10-11T03:55:52.368Z,102628.75
2022-10-11T03:58:19.195Z,102633.09
2022-10-11T04:00:46.561Z,102634.88
2022-10-11T04:03:13.438Z,102633.16
2022-10-11T04:05:40.248Z,102639.25
2022-10-11T04:08:11.204Z,102645.28
2022-10-11T04:10:40.132Z,102644.84
2022-10-11T04:13:09.714Z,102637.59
2022-10-11T04:15:37.055Z,102638.41
2022-10-11T04:18:04.160Z,102631.50
2022-10-11T04:20:30.858Z,102646.16
2022-10-11T04:22:57.660Z,102651.25
2022-10-11T04:25:24.520Z,102651.91
2022-10-11T04:27:51.504Z,102651.84
2022-10-11T04:30:19.832Z,102652.78
2022-10-11T04:32:46.667Z,102655.56
2022-10-11T04:35:13.583Z,102664.41
2022-10-11T04:37:40.386Z,102664.41
2022-10-11T04:40:08.823Z,102665.19
2022-10-11T04:42:35.615Z,102658.16
2022-10-11T04:45:02.642Z,102657.41
2022-10-11T04:47:30.780Z,102666.97
2022-10-11T04:49:57.591Z,102660.84
2022-10-11T04:52:25.963Z,102661.56
2022-10-11T04:54:52.952Z,102660.72
2022-10-11T04:57:19.765Z,102665.47
2022-10-11T04:59:50.015Z,102671.38
2022-10-11T05:02:17.374Z,102667.56
2022-10-11T05:04:45.675Z,102671.47
2022-10-11T05:07:12.509Z,102671.50
2022-10-11T05:09:39.320Z,102667.94
2022-10-11T05:12:06.357Z,102669.06
2022-10-11T05:14:33.115Z,102679.88
2022-10-11T05:17:00.025Z,102681.22
2022-10-11T05:19:27.041Z,102684.88
2022-10-11T05:21:55.498Z,102684.53
2022-10-11T05:24:22.238Z,102686.25
2022-10-11T05:26:49.553Z,102689.69
2022-10-11T05:29:16.337Z,102688.75
2022-10-11T05:31:43.363Z,102685.47
2022-10-11T05:34:10.086Z,102682.53
2022-10-11T05:36:37.049Z,102691.38
2022-10-11T05:39:06.008Z,102689.84
2022-10-11T05:41:32.817Z,102693.81
2022-10-11T05:43:59.597Z,102692.06
2022-10-11T05:46:26.390Z,102685.16
2022-10-11T05:48:53.124Z,102697.34
2022-10-11T05:51:20.226Z,102702.72
2022-10-11T05:53:47.052Z,102701.81
2022-10-11T05:56:20.404Z,102695.84
2022-10-11T05:58:47.540Z,102714.13
2022-10-11T06:01:19.193Z,102709.75
2022-10-11T06:03:46.189Z,102715.25
2022-10-11T06:06:12.943Z,102714.50
2022-10-11T06:08:39.877Z,102716.28
2022-10-11T06:11:12.200Z,102718.94
2022-10-11T06:13:40.908Z,102711.94
2022-10-11T06:16:08.407Z,102712.75
2022-10-11T06:18:35.485Z,102727.56
2022-10-11T06:21:02.623Z,102731.91
2022-10-11T06:23:29.461Z,102728.41
2022-10-11T06:25:57.540Z,102716.63
2022-10-11T06:28:24.472Z,102729.09
2022-10-11T06:30:52.869Z,102731.81
2022-10-11T06:33:19.844Z,102740.50
2022-10-11T06:35:46.766Z,102738.69
2022-10-11T06:38:13.614Z,102739.53
2022-10-11T06:40:40.575Z,102743.91
2022-10-11T06:43:07.685Z,102745.47
2022-10-11T06:45:34.562Z,102746.25
2022-10-11T06:48:05.605Z,102748.91
2022-10-11T06:50:57.850Z,102749.72
2022-10-11T06:53:19.843Z,102756.69
2022-10-11T06:55:47.344Z,102759.16
2022-10-11T06:58:14.120Z,102755.63
2022-10-11T07:00:40.904Z,102767.75
2022-10-11T07:03:09.098Z,102767.81
2022-10-11T07:05:35.918Z,102769.44
2022-10-11T07:08:03.129Z,102767.47
2022-10-11T07:10:29.901Z,102766.38
2022-10-11T07:12:56.627Z,102781.88
2022-10-11T07:15:23.470Z,102777.28
2022-10-11T07:17:50.282Z,102776.25
2022-10-11T07:20:18.638Z,102782.97
2022-10-11T07:22:45.425Z,102783.81
2022-10-11T07:25:12.156Z,102789.75
2022-10-11T07:27:39.045Z,102786.94
2022-10-11T07:30:07.196Z,102796.25
2022-10-11T07:32:33.980Z,102789.91
2022-10-11T07:35:00.799Z,102796.75
2022-10-11T07:37:29.012Z,102796.22
2022-10-11T07:39:55.726Z,102797.56
2022-10-11T07:42:22.683Z,102791.88
2022-10-11T07:44:49.452Z,102794.16
2022-10-11T07:47:16.192Z,102791.28
2022-10-11T07:49:43.005Z,102792.44
2022-10-11T07:52:09.856Z,102791.22
2022-10-11T07:54:40.149Z,102796.56
2022-10-11T07:57:06.949Z,102797.03
2022-10-11T07:59:33.695Z,102799.91
2022-10-11T08:02:00.570Z,102793.94
2022-10-11T08:04:27.373Z,102796.16
2022-10-11T08:06:54.210Z,102800.00
2022-10-11T08:09:21.131Z,102808.56
2022-10-11T08:11:49.279Z,102802.16
2022-10-11T08:14:16.016Z,102803.91
2022-10-11T08:16:42.875Z,102806.44
2022-10-11T08:19:10.610Z,102808.84
2022-10-11T08:21:37.544Z,102804.94
2022-10-11T08:24:05.604Z,102810.09
2022-10-11T08:26:32.991Z,102811.56
2022-10-11T08:29:03.450Z,102810.47
2022-10-11T08:31:30.407Z,102818.75
2022-10-11T08:33:57.345Z,102809.47
2022-10-11T08:36:24.201Z,102817.94
2022-10-11T08:38:51.263Z,102821.03
2022-10-11T08:41:28.151Z,102812.34
2022-10-11T08:44:03.698Z,102820.69
2022-10-11T08:46:33.469Z,102828.09
2022-10-11T08:49:01.729Z,102824.63
2022-10-11T08:51:32.285Z,102825.75
2022-10-11T08:54:07.545Z,102826.28
2022-10-11T08:56:38.831Z,102839.06
2022-10-11T08:59:21.707Z,102833.63
2022-10-11T09:01:58.202Z,102833.41
2022-10-11T09:04:25.031Z,102840.03
2022-10-11T09:07:05.342Z,102840.28
2022-10-11T09:09:55.712Z,102828.88
2022-10-11T09:12:33.563Z,102842.88
2022-10-11T09:15:15.223Z,102832.09
2022-10-11T09:17:59.512Z,102841.91
2022-10-11T09:20:42.017Z,102842.31
2022-10-11T09:23:23.501Z,102837.09
2022-10-11T09:25:55.869Z,102838.22
2022-10-11T09:28:33.421Z,102824.59
2022-10-11T09:31:00.428Z,102838.53
2022-10-11T09:33:34.361Z,102840.88
2022-10-11T09:36:02.957Z,102830.78
2022-10-11T09:38:40.784Z,102834.47
2022-10-11T09:41:15.170Z,102841.88
2022-10-11T09:43:46.084Z,102838.44
2022-10-11T09:46:19.803Z,102841.75
2022-10-11T09:48:48.859Z,102846.34
2022-10-11T09:51:20.044Z,102847.69
2022-10-11T09:53:53.496Z,102844.00
2022-10-11T09:56:21.519Z,102848.13
2022-10-11T09:58:48.720Z,102852.09
2022-10-11T10:01:25.120Z,102841.47
2022-10-11T10:04:07.296Z,102854.63
2022-10-11T10:06:34.580Z,102849.66
2022-10-11T10:09:22.319Z,102847.69
2022-10-11T10:11:49.237Z,102837.47
2022-10-11T10:14:22.208Z,102847.91
2022-10-11T10:16:57.885Z,102849.59
2022-10-11T10:19:26.329Z,102851.09
2022-10-11T10:21:55.421Z,102843.66
2022-10-11T10:24:34.856Z,102839.97
2022-10-11T10:27:08.332Z,102848.97
2022-10-11T10:29:37.091Z,102846.84
2022-10-11T10:32:14.272Z,102852.47
2022-10-11T10:34:56.954Z,102855.47
2022-10-11T10:37:29.514Z,102847.78
2022-10-11T10:40:03.065Z,102851.75
2022-10-11T10:42:29.863Z,102853.94
2022-10-11T10:44:58.728Z,102846.91
2022-10-11T10:47:59.578Z,102853.25
2022-10-11T10:50:40.401Z,102850.75
2022-10-11T10:53:19.924Z,102851.41
2022-10-11T10:55:54.136Z,102850.69
2022-10-11T10:58:42.383Z,102830.22
2022-10-11T11:01:17.890Z,102839.47
2022-10-11T11:03:48.501Z,102834.19
2022-10-11T11:06:26.025Z,102840.13
2022-10-11T11:09:01.749Z,102840.63
2022-10-11T11:11:39.848Z,102832.53
2022-10-11T11:14:22.681Z,102838.53
2022-10-11T11:16:55.884Z,102838.00
2022-10-11T11:19:36.252Z,102848.81
2022-10-11T11:22:11.359Z,102841.97
2022-10-11T11:24:46.765Z,102841.38
2022-10-11T11:27:24.376Z,102836.44
2022-10-11T11:29:59.191Z,102837.50
2022-10-11T11:32:32.185Z,102827.88
2022-10-11T11:35:03.787Z,102832.91
2022-10-11T11:37:36.024Z,102837.44
2022-10-11T11:40:08.661Z,102828.09
2022-10-11T11:42:41.758Z,102832.53
2022-10-11T11:45:18.901Z,102828.97
2022-10-11T11:47:52.100Z,102836.75
2022-10-11T11:50:22.939Z,102835.63
2022-10-11T11:52:54.978Z,102833.81
2022-10-11T11:55:28.543Z,102830.34
2022-10-11T11:58:06.928Z,102826.13
2022-10-11T12:00:40.728Z,102821.34
2022-10-11T12:03:16.432Z,102813.50
2022-10-11T12:06:19.468Z,102814.53
2022-10-11T12:08:55.730Z,102813.66
2022-10-11T12:11:25.975Z,102807.88
2022-10-11T12:13:54.592Z,102823.22
2022-10-11T12:16:23.019Z,102812.47
2022-10-11T12:18:54.067Z,102816.31
2022-10-11T12:21:31.719Z,102812.13
2022-10-11T12:24:01.658Z,102812.34
2022-10-11T12:26:47.748Z,102812.94
2022-10-11T12:29:46.827Z,102816.03
2022-10-11T12:32:49.611Z,102815.50
2022-10-11T12:36:04.117Z,102815.72
2022-10-11T12:38:35.579Z,102808.25
2022-10-11T12:41:47.134Z,102808.09
2022-10-11T12:44:23.221Z,102807.69
2022-10-11T12:47:20.289Z,102814.81
2022-10-11T12:50:06.085Z,102803.28
2022-10-11T12:52:41.863Z,102810.19
2022-10-11T12:55:35.611Z,102808.84
2022-10-11T12:58:24.616Z,102805.91
2022-10-11T13:01:12.944Z,102805.31
2022-10-11T13:03:42.249Z,102808.38
2022-10-11T13:06:16.705Z,102815.00
2022-10-11T13:08:47.475Z,102801.56
2022-10-11T13:11:19.428Z,102799.56
2022-10-11T13:13:52.117Z,102796.19
2022-10-11T13:16:22.611Z,102781.91
2022-10-11T13:18:53.984Z,102777.91
2022-10-11T13:21:27.834Z,102782.25
2022-10-11T13:23:57.714Z,102780.03
2022-10-11T13:26:25.253Z,102787.63
2022-10-11T13:28:52.457Z,102785.91
2022-10-11T13:31:21.804Z,102784.81
2022-10-11T13:33:48.575Z,102781.09
2022-10-11T13:36:18.511Z,102781.59
2022-10-11T13:38:53.922Z,102786.50
2022-10-11T13:41:22.303Z,102782.09
2022-10-11T13:43:49.351Z,102780.91
2022-10-11T13:46:22.249Z,102778.94
2022-10-11T13:48:59.788Z,102781.63
2022-10-11T13:51:32.223Z,102788.50
2022-10-11T13:54:01.923Z,102782.44
2022-10-11T13:56:31.751Z,102785.91
2022-10-11T13:58:59.067Z,102785.50
2022-10-11T14:01:35.274Z,102780.81
2022-10-11T14:04:05.547Z,102786.78
2022-10-11T14:06:42.389Z,102778.44
2022-10-11T14:09:18.706Z,102777.34
2022-10-11T14:11:45.601Z,102781.91
2022-10-11T14:14:41.124Z,102776.91
2022-10-11T14:17:15.580Z,102785.50
2022-10-11T14:19:42.967Z,102775.88
2022-10-11T14:22:15.020Z,102782.09
2022-10-11T14:24:42.669Z,102789.06
2022-10-11T14:27:17.556Z,102781.22
2022-10-11T14:29:55.604Z,102781.13
2022-10-11T14:32:34.804Z,102768.19
2022-10-11T14:35:01.594Z,102774.78
2022-10-11T14:37:28.394Z,102775.75
2022-10-11T14:39:55.378Z,102767.66
2022-10-11T14:42:22.140Z,102765.22
2022-10-11T14:44:48.931Z,102771.72
2022-10-11T14:47:16.840Z,102766.63
2022-10-11T14:49:45.012Z,102769.72
2022-10-11T14:52:13.217Z,102771.97
2022-10-11T14:54:40.474Z,102761.59
2022-10-11T14:57:11.812Z,102760.91
2022-10-11T14:59:39.073Z,102771.50
2022-10-11T15:02:08.911Z,102772.53
2022-10-11T15:04:36.117Z,102772.31
2022-10-11T15:07:04.837Z,102774.34
2022-10-11T15:09:31.592Z,102759.50
2022-10-11T15:11:58.381Z,102767.88
2022-10-11T15:14:25.496Z,102773.47
2022-10-11T15:16:52.581Z,102768.56
2022-10-11T15:19:21.860Z,102764.47
2022-10-11T15:21:49.236Z,102762.03
2022-10-11T15:24:21.187Z,102763.94
2022-10-11T15:26:48.813Z,102760.41
2022-10-11T15:29:20.464Z,102762.53
2022-10-11T15:31:49.310Z,102759.38
2022-10-11T16:01:49.570Z,102764.59
2022-10-11T16:04:16.458Z,102769.84
2022-10-11T16:06:43.205Z,102764.75
2022-10-11T16:09:09.992Z,102764.06
2022-10-11T16:11:37.100Z,102763.78
2022-10-11T16:14:03.857Z,102767.13
2022-10-11T16:16:30.651Z,102764.31
2022-10-11T16:18:58.771Z,102761.66
2022-10-11T16:21:25.601Z,102756.47
2022-10-11T16:23:52.298Z,102761.78
2022-10-11T16:26:19.072Z,102758.53
2022-10-11T16:28:47.699Z,102764.94
2022-10-11T16:31:18.356Z,102773.09
2022-10-11T16:33:48.113Z,102764.47
2022-10-11T16:36:40.755Z,102765.63
2022-10-11T16:39:10.763Z,102759.69
2022-10-11T16:41:37.866Z,102760.25
2022-10-11T16:44:05.310Z,102755.25
2022-10-11T16:46:33.080Z,102748.41
2022-10-11T16:48:59.931Z,102748.91
2022-10-11T16:51:28.311Z,102756.59
2022-10-11T16:53:55.120Z,102750.75
2022-10-11T16:56:24.207Z,102755.59
2022-10-11T16:58:51.865Z,102749.56
2022-10-11T17:01:19.158Z,102759.69
2022-10-11T17:03:46.044Z,102756.41
2022-10-11T17:06:12.783Z,102757.59
2022-10-11T17:08:41.088Z,102765.88
2022-10-11T17:11:08.112Z,102765.22
2022-10-11T17:13:35.015Z,102754.75
2022-10-11T17:16:01.917Z,102761.19
2022-10-11T17:18:28.775Z,102766.69
2022-10-11T17:21:01.059Z,102758.09
2022-10-11T17:23:27.837Z,102766.06
2022-10-11T17:25:56.333Z,102760.50
2022-10-11T17:28:23.274Z,102762.38
2022-10-11T17:30:54.793Z,102755.50
2022-10-11T17:33:21.973Z,102765.94
2022-10-11T17:35:48.938Z,102766.78
2022-10-11T17:38:15.982Z,102769.88
2022-10-11T17:40:42.799Z,102772.63
2022-10-11T17:43:11.363Z,102761.91
2022-10-11T17:45:38.352Z,102763.00
2022-10-11T17:48:05.360Z,102767.56
2022-10-11T17:50:33.113Z,102761.50
2022-10-11T17:52:59.936Z,102767.25
2022-10-11T17:55:26.782Z,102758.16
2022-10-11T17:57:53.658Z,102763.88
2022-10-11T18:00:22.077Z,102759.25
2022-10-11T18:02:49.140Z,102761.53
2022-10-11T18:05:16.898Z,102762.13
2022-10-11T18:07:43.619Z,102764.47
2022-10-11T18:10:10.321Z,102765.75
2022-10-11T18:12:37.092Z,102752.28
2022-10-11T18:15:04.122Z,102763.88
2022-10-11T18:17:32.470Z,102763.53
2022-10-11T18:19:59.268Z,102760.38
2022-10-11T18:22:26.262Z,102771.13
2022-10-11T18:24:53.017Z,102764.16
2022-10-11T18:27:19.772Z,102756.22
2022-10-11T18:29:46.548Z,102770.16
2022-10-11T18:32:13.320Z,102761.41
2022-10-11T18:34:41.855Z,102764.97
2022-10-11T18:37:08.558Z,102758.94
2022-10-11T18:39:35.814Z,102762.41
2022-10-11T18:42:04.678Z,102756.31
2022-10-11T18:44:31.958Z,102757.28
2022-10-11T18:46:59.116Z,102757.28
2022-10-11T18:49:25.985Z,102759.91
2022-10-11T18:51:54.116Z,102767.00
2022-10-11T18:54:21.486Z,102753.84
2022-10-11T18:56:48.978Z,102758.16
2022-10-11T18:59:16.090Z,102759.94
2022-10-11T19:01:48.148Z,102768.78
2022-10-11T19:04:18.310Z,102748.63
2022-10-11T19:06:49.715Z,102748.72
2022-10-11T19:09:22.011Z,102759.19
2022-10-11T19:11:49.276Z,102747.97
2022-10-11T19:14:18.124Z,102762.03
2022-10-11T19:16:49.686Z,102762.22
2022-10-11T19:19:17.833Z,102751.72
2022-10-11T19:21:45.114Z,102762.50
2022-10-11T19:24:11.924Z,102762.50
2022-10-11T19:26:41.296Z,102753.72
2022-10-11T19:29:10.941Z,102759.16
2022-10-11T19:31:40.759Z,102753.91
2022-10-11T19:34:07.725Z,102755.75
2022-10-11T19:36:36.758Z,102759.38
2022-10-11T19:39:04.980Z,102757.00
2022-10-11T19:41:32.286Z,102758.59
2022-10-11T19:44:00.409Z,102766.63
2022-10-11T19:46:49.950Z,102755.03
2022-10-11T19:49:17.801Z,102754.25
2022-10-11T19:51:44.792Z,102755.25
2022-10-11T19:54:13.818Z,102760.66
2022-10-11T19:56:40.878Z,102745.72
2022-10-11T19:59:10.426Z,102752.81
2022-10-11T20:01:37.579Z,102750.25
2022-10-11T20:04:06.715Z,102751.16
2022-10-11T20:06:38.362Z,102756.53
2022-10-11T20:09:28.022Z,102751.25
2022-10-11T20:11:53.071Z,102753.94
2022-10-11T20:14:21.387Z,102755.59
2022-10-11T20:16:50.063Z,102748.59
2022-10-11T20:19:17.388Z,102751.22
2022-10-11T20:21:45.140Z,102762.69
2022-10-11T20:24:12.407Z,102759.16
2022-10-11T20:26:39.492Z,102760.16
2022-10-11T20:29:06.636Z,102766.34
2022-10-11T20:31:38.645Z,102767.41
2022-10-11T20:34:07.454Z,102758.59
2022-10-11T20:36:36.010Z,102763.94
2022-10-11T20:39:05.254Z,102764.94
2022-10-11T20:41:33.627Z,102759.66
2022-10-11T20:44:01.666Z,102765.13
2022-10-11T20:46:31.493Z,102766.97
2022-10-11T20:49:02.052Z,102757.38
2022-10-11T20:51:30.564Z,102754.78
2022-10-11T20:53:58.322Z,102753.06
2022-10-11T20:56:25.323Z,102756.81
2022-10-11T20:58:53.447Z,102752.53
2022-10-11T21:01:22.438Z,102751.72
2022-10-11T21:03:49.340Z,102757.97
2022-10-11T21:06:17.519Z,102755.31
2022-10-11T21:08:44.689Z,102758.88
2022-10-11T21:11:11.774Z,102756.25
2022-10-11T21:13:38.681Z,102752.69
2022-10-11T21:16:07.049Z,102757.09
2022-10-11T21:18:34.201Z,102747.47
2022-10-11T21:21:06.196Z,102747.41
2022-10-11T21:23:34.843Z,102742.09
2022-10-11T21:26:02.605Z,102750.91
2022-10-11T21:28:29.882Z,102749.16
2022-10-11T21:31:03.571Z,102748.28
2022-10-11T21:33:30.418Z,102747.41
2022-10-11T21:35:57.768Z,102742.09
2022-10-11T21:38:24.566Z,102742.09
2022-10-11T21:40:52.680Z,102750.81
2022-10-11T21:43:19.459Z,102748.97
2022-10-11T21:45:46.259Z,102755.94
2022-10-11T21:48:13.037Z,102747.03
2022-10-11T21:50:39.764Z,102749.56
2022-10-11T21:53:06.509Z,102754.63
2022-10-11T21:55:33.561Z,102753.75
2022-10-11T21:58:01.677Z,102748.47
2022-10-11T22:00:28.405Z,102749.34
2022-10-11T22:02:55.435Z,102748.44
2022-10-11T22:05:22.274Z,102745.88
2022-10-11T22:07:49.007Z,102747.53
2022-10-11T22:10:15.916Z,102747.63
2022-10-11T22:12:43.003Z,102748.13
2022-10-11T22:15:11.583Z,102749.81
2022-10-11T22:17:38.664Z,102754.03
2022-10-11T22:20:06.059Z,102751.25
2022-10-11T22:22:33.257Z,102750.31
2022-10-11T22:25:00.200Z,102751.06
2022-10-11T22:27:27.005Z,102748.38
2022-10-11T22:29:53.790Z,102745.84
2022-10-11T22:32:21.926Z,102741.47
2022-10-11T22:34:48.988Z,102747.59
2022-10-11T22:37:15.792Z,102748.50
2022-10-11T22:39:42.498Z,102746.69
2022-10-11T22:42:09.285Z,102745.00
2022-10-11T22:44:36.027Z,102741.41
2022-10-11T22:47:02.936Z,102737.28
2022-10-11T22:49:31.104Z,102744.31
2022-10-11T22:51:57.813Z,102739.09
2022-10-11T22:54:24.931Z,102729.34
2022-10-11T22:56:51.634Z,102736.50
2022-10-11T22:59:18.381Z,102731.22
2022-10-11T23:01:45.282Z,102739.56
2022-10-11T23:04:12.210Z,102730.91
2022-10-11T23:06:40.501Z,102731.78
2022-10-11T23:09:07.403Z,102728.41
2022-10-11T23:11:34.146Z,102734.72
2022-10-11T23:14:00.934Z,102720.03
2022-10-11T23:16:27.753Z,102731.53
2022-10-11T23:18:55.125Z,102733.31
2022-10-11T23:21:22.380Z,102729.00
2022-10-11T23:23:52.188Z,102736.16
2022-10-11T23:26:18.914Z,102730.00
2022-10-11T23:28:46.054Z,102722.06
2022-10-11T23:31:14.751Z,102725.22
2022-10-11T23:33:41.508Z,102731.16
2022-10-11T23:36:13.937Z,102725.59
2022-10-11T23:38:40.866Z,102725.69
2022-10-11T23:41:09.009Z,102728.22
2022-10-11T23:43:35.857Z,102717.63
2022-10-11T23:46:02.717Z,102715.19
2022-10-11T23:48:30.091Z,102713.69
2022-10-11T23:50:56.902Z,102713.13
2022-10-11T23:53:23.962Z,102719.28
2022-10-11T23:55:50.866Z,102717.53
2022-10-11T23:58:19.292Z,102710.53
